sensor_id;sensor_type;location;lat;lon;timestamp;P1;durP1;ratioP1;P2;durP2;ratioP2
11328;SDS011;5719;42.714;23.732;2022-10-16T00:00:42;9.30;;;4.65;;
11328;SDS011;5719;42.714;23.732;2022-10-16T00:03:10;11.18;;;5.18;;
11328;SDS011;5719;42.714;23.732;2022-10-16T00:05:38;6.53;;;4.63;;
11328;SDS011;5719;42.714;23.732;2022-10-16T00:08:06;6.18;;;4.05;;
11328;SDS011;5719;42.714;23.732;2022-10-16T00:10:34;6.57;;;3.90;;
11328;SDS011;5719;42.714;23.732;2022-10-16T00:13:01;6.10;;;4.60;;
11328;SDS011;5719;42.714;23.732;2022-10-16T00:15:30;5.80;;;4.15;;
11328;SDS011;5719;42.714;23.732;2022-10-16T00:17:58;4.63;;;4.18;;
11328;SDS011;5719;42.714;23.732;2022-10-16T00:20:25;7.47;;;4.10;;
11328;SDS011;5719;42.714;23.732;2022-10-16T00:22:52;4.70;;;4.20;;
11328;SDS011;5719;42.714;23.732;2022-10-16T00:25:19;8.35;;;4.32;;
11328;SDS011;5719;42.714;23.732;2022-10-16T00:27:46;18.80;;;8.20;;
11328;SDS011;5719;42.714;23.732;2022-10-16T00:30:13;15.60;;;7.82;;
11328;SDS011;5719;42.714;23.732;2022-10-16T00:32:41;10.98;;;6.15;;
11328;SDS011;5719;42.714;23.732;2022-10-16T00:35:08;7.97;;;5.15;;
11328;SDS011;5719;42.714;23.732;2022-10-16T00:37:35;10.35;;;5.90;;
11328;SDS011;5719;42.714;23.732;2022-10-16T00:40:02;10.55;;;5.50;;
11328;SDS011;5719;42.714;23.732;2022-10-16T00:42:29;8.73;;;5.75;;
11328;SDS011;5719;42.714;23.732;2022-10-16T00:44:56;8.57;;;4.95;;
11328;SDS011;5719;42.714;23.732;2022-10-16T00:47:24;8.23;;;5.13;;
11328;SDS011;5719;42.714;23.732;2022-10-16T00:49:58;6.70;;;4.72;;
11328;SDS011;5719;42.714;23.732;2022-10-16T00:52:28;6.20;;;4.93;;
11328;SDS011;5719;42.714;23.732;2022-10-16T00:54:55;8.75;;;4.88;;
11328;SDS011;5719;42.714;23.732;2022-10-16T00:57:23;7.05;;;4.90;;
11328;SDS011;5719;42.714;23.732;2022-10-16T00:59:51;7.95;;;4.70;;
11328;SDS011;5719;42.714;23.732;2022-10-16T01:02:18;5.93;;;4.82;;
11328;SDS011;5719;42.714;23.732;2022-10-16T01:04:46;6.47;;;4.70;;
11328;SDS011;5719;42.714;23.732;2022-10-16T01:07:19;12.55;;;4.78;;
11328;SDS011;5719;42.714;23.732;2022-10-16T01:09:58;8.45;;;5.70;;
11328;SDS011;5719;42.714;23.732;2022-10-16T01:12:34;7.07;;;5.20;;
11328;SDS011;5719;42.714;23.732;2022-10-16T01:15:08;11.10;;;5.50;;
11328;SDS011;5719;42.714;23.732;2022-10-16T01:17:41;10.13;;;5.45;;
11328;SDS011;5719;42.714;23.732;2022-10-16T01:20:14;8.18;;;5.25;;
11328;SDS011;5719;42.714;23.732;2022-10-16T01:23:04;5.20;;;4.57;;
11328;SDS011;5719;42.714;23.732;2022-10-16T01:25:44;7.90;;;4.90;;
11328;SDS011;5719;42.714;23.732;2022-10-16T01:28:25;7.28;;;4.78;;
11328;SDS011;5719;42.714;23.732;2022-10-16T01:30:56;8.40;;;5.35;;
11328;SDS011;5719;42.714;23.732;2022-10-16T01:33:28;5.43;;;4.78;;
11328;SDS011;5719;42.714;23.732;2022-10-16T01:36:02;12.00;;;4.85;;
11328;SDS011;5719;42.714;23.732;2022-10-16T01:38:34;8.88;;;5.20;;
11328;SDS011;5719;42.714;23.732;2022-10-16T01:41:06;6.68;;;5.15;;
11328;SDS011;5719;42.714;23.732;2022-10-16T01:43:39;5.75;;;4.80;;
11328;SDS011;5719;42.714;23.732;2022-10-16T01:46:09;7.50;;;4.90;;
11328;SDS011;5719;42.714;23.732;2022-10-16T01:48:39;8.50;;;4.68;;
11328;SDS011;5719;42.714;23.732;2022-10-16T01:51:07;6.78;;;4.70;;
11328;SDS011;5719;42.714;23.732;2022-10-16T01:53:37;4.63;;;4.22;;
11328;SDS011;5719;42.714;23.732;2022-10-16T01:56:07;5.20;;;4.38;;
11328;SDS011;5719;42.714;23.732;2022-10-16T01:58:37;4.32;;;3.92;;
11328;SDS011;5719;42.714;23.732;2022-10-16T02:01:09;7.10;;;4.43;;
11328;SDS011;5719;42.714;23.732;2022-10-16T02:03:40;6.57;;;4.70;;
11328;SDS011;5719;42.714;23.732;2022-10-16T02:06:09;4.88;;;4.28;;
11328;SDS011;5719;42.714;23.732;2022-10-16T02:08:36;6.85;;;4.03;;
11328;SDS011;5719;42.714;23.732;2022-10-16T02:11:05;5.43;;;4.65;;
11328;SDS011;5719;42.714;23.732;2022-10-16T02:13:34;5.45;;;4.50;;
11328;SDS011;5719;42.714;23.732;2022-10-16T02:16:06;6.93;;;4.57;;
11328;SDS011;5719;42.714;23.732;2022-10-16T02:18:33;7.93;;;4.68;;
11328;SDS011;5719;42.714;23.732;2022-10-16T02:21:01;5.75;;;4.20;;
11328;SDS011;5719;42.714;23.732;2022-10-16T02:23:35;6.17;;;4.83;;
11328;SDS011;5719;42.714;23.732;2022-10-16T02:26:10;4.53;;;4.07;;
11328;SDS011;5719;42.714;23.732;2022-10-16T02:28:42;6.53;;;4.50;;
11328;SDS011;5719;42.714;23.732;2022-10-16T02:31:15;11.73;;;4.82;;
11328;SDS011;5719;42.714;23.732;2022-10-16T02:33:47;5.65;;;4.97;;
11328;SDS011;5719;42.714;23.732;2022-10-16T02:36:17;5.63;;;4.25;;
11328;SDS011;5719;42.714;23.732;2022-10-16T02:38:45;6.68;;;4.63;;
11328;SDS011;5719;42.714;23.732;2022-10-16T02:41:12;11.60;;;5.22;;
11328;SDS011;5719;42.714;23.732;2022-10-16T02:43:40;8.18;;;4.60;;
11328;SDS011;5719;42.714;23.732;2022-10-16T02:46:06;8.30;;;5.40;;
11328;SDS011;5719;42.714;23.732;2022-10-16T02:48:35;8.65;;;5.30;;
11328;SDS011;5719;42.714;23.732;2022-10-16T02:51:02;10.80;;;5.82;;
11328;SDS011;5719;42.714;23.732;2022-10-16T02:53:29;9.05;;;5.38;;
11328;SDS011;5719;42.714;23.732;2022-10-16T02:55:56;5.82;;;5.10;;
11328;SDS011;5719;42.714;23.732;2022-10-16T02:58:23;7.10;;;5.20;;
11328;SDS011;5719;42.714;23.732;2022-10-16T03:00:49;6.65;;;4.88;;
11328;SDS011;5719;42.714;23.732;2022-10-16T03:03:16;9.00;;;5.00;;
11328;SDS011;5719;42.714;23.732;2022-10-16T03:05:44;5.85;;;4.68;;
11328;SDS011;5719;42.714;23.732;2022-10-16T03:08:11;9.85;;;4.75;;
11328;SDS011;5719;42.714;23.732;2022-10-16T03:10:38;5.65;;;4.47;;
11328;SDS011;5719;42.714;23.732;2022-10-16T03:13:05;6.68;;;3.85;;
11328;SDS011;5719;42.714;23.732;2022-10-16T03:15:32;11.30;;;4.97;;
11328;SDS011;5719;42.714;23.732;2022-10-16T03:17:59;6.90;;;4.82;;
11328;SDS011;5719;42.714;23.732;2022-10-16T03:20:26;5.40;;;4.47;;
11328;SDS011;5719;42.714;23.732;2022-10-16T03:22:54;5.50;;;4.40;;
11328;SDS011;5719;42.714;23.732;2022-10-16T03:25:21;4.72;;;4.22;;
11328;SDS011;5719;42.714;23.732;2022-10-16T03:27:48;5.35;;;4.57;;
11328;SDS011;5719;42.714;23.732;2022-10-16T03:30:15;5.13;;;4.47;;
11328;SDS011;5719;42.714;23.732;2022-10-16T03:32:43;7.95;;;5.00;;
11328;SDS011;5719;42.714;23.732;2022-10-16T03:35:10;6.22;;;4.30;;
11328;SDS011;5719;42.714;23.732;2022-10-16T03:37:37;4.60;;;4.20;;
11328;SDS011;5719;42.714;23.732;2022-10-16T03:40:06;4.55;;;4.10;;
11328;SDS011;5719;42.714;23.732;2022-10-16T03:42:34;7.78;;;4.60;;
11328;SDS011;5719;42.714;23.732;2022-10-16T03:45:01;7.15;;;4.60;;
11328;SDS011;5719;42.714;23.732;2022-10-16T03:47:28;7.10;;;4.45;;
11328;SDS011;5719;42.714;23.732;2022-10-16T03:49:54;5.03;;;4.30;;
11328;SDS011;5719;42.714;23.732;2022-10-16T03:52:21;6.32;;;4.70;;
11328;SDS011;5719;42.714;23.732;2022-10-16T03:54:48;5.93;;;4.38;;
11328;SDS011;5719;42.714;23.732;2022-10-16T03:57:16;4.70;;;4.10;;
11328;SDS011;5719;42.714;23.732;2022-10-16T03:59:43;5.40;;;4.38;;
11328;SDS011;5719;42.714;23.732;2022-10-16T04:02:10;6.97;;;4.10;;
11328;SDS011;5719;42.714;23.732;2022-10-16T04:04:37;7.68;;;4.18;;
11328;SDS011;5719;42.714;23.732;2022-10-16T04:07:04;5.22;;;4.03;;
11328;SDS011;5719;42.714;23.732;2022-10-16T04:09:31;4.68;;;4.22;;
11328;SDS011;5719;42.714;23.732;2022-10-16T04:11:57;5.25;;;4.32;;
11328;SDS011;5719;42.714;23.732;2022-10-16T04:14:26;6.85;;;4.00;;
11328;SDS011;5719;42.714;23.732;2022-10-16T04:16:52;6.20;;;4.30;;
11328;SDS011;5719;42.714;23.732;2022-10-16T04:19:19;6.05;;;4.15;;
11328;SDS011;5719;42.714;23.732;2022-10-16T04:21:46;6.65;;;4.30;;
11328;SDS011;5719;42.714;23.732;2022-10-16T04:24:13;5.65;;;4.22;;
11328;SDS011;5719;42.714;23.732;2022-10-16T04:26:40;7.80;;;4.50;;
11328;SDS011;5719;42.714;23.732;2022-10-16T04:29:07;7.60;;;4.95;;
11328;SDS011;5719;42.714;23.732;2022-10-16T04:31:35;8.15;;;4.95;;
11328;SDS011;5719;42.714;23.732;2022-10-16T04:34:02;9.02;;;5.70;;
11328;SDS011;5719;42.714;23.732;2022-10-16T04:36:29;9.65;;;6.05;;
11328;SDS011;5719;42.714;23.732;2022-10-16T04:38:55;15.98;;;9.02;;
11328;SDS011;5719;42.714;23.732;2022-10-16T04:41:22;13.25;;;7.32;;
11328;SDS011;5719;42.714;23.732;2022-10-16T04:43:49;10.13;;;6.57;;
11328;SDS011;5719;42.714;23.732;2022-10-16T04:46:16;10.27;;;7.00;;
11328;SDS011;5719;42.714;23.732;2022-10-16T04:48:44;18.45;;;10.02;;
11328;SDS011;5719;42.714;23.732;2022-10-16T04:51:12;36.20;;;16.92;;
11328;SDS011;5719;42.714;23.732;2022-10-16T04:53:38;25.85;;;13.60;;
11328;SDS011;5719;42.714;23.732;2022-10-16T04:56:05;22.38;;;11.75;;
11328;SDS011;5719;42.714;23.732;2022-10-16T04:58:33;18.85;;;11.30;;
11328;SDS011;5719;42.714;23.732;2022-10-16T05:01:00;20.10;;;10.68;;
11328;SDS011;5719;42.714;23.732;2022-10-16T05:03:26;18.52;;;10.93;;
11328;SDS011;5719;42.714;23.732;2022-10-16T05:05:55;17.73;;;10.80;;
11328;SDS011;5719;42.714;23.732;2022-10-16T05:08:22;18.63;;;9.88;;
11328;SDS011;5719;42.714;23.732;2022-10-16T05:10:48;10.88;;;6.97;;
11328;SDS011;5719;42.714;23.732;2022-10-16T05:13:15;7.53;;;6.00;;
11328;SDS011;5719;42.714;23.732;2022-10-16T05:15:46;10.10;;;6.00;;
11328;SDS011;5719;42.714;23.732;2022-10-16T05:18:13;8.18;;;5.45;;
11328;SDS011;5719;42.714;23.732;2022-10-16T05:20:40;7.88;;;6.18;;
11328;SDS011;5719;42.714;23.732;2022-10-16T05:23:09;7.53;;;5.65;;
11328;SDS011;5719;42.714;23.732;2022-10-16T05:25:36;9.63;;;5.82;;
11328;SDS011;5719;42.714;23.732;2022-10-16T05:28:03;9.23;;;5.82;;
11328;SDS011;5719;42.714;23.732;2022-10-16T05:30:30;6.90;;;5.55;;
11328;SDS011;5719;42.714;23.732;2022-10-16T05:32:57;12.93;;;6.57;;
11328;SDS011;5719;42.714;23.732;2022-10-16T05:35:24;14.77;;;8.95;;
11328;SDS011;5719;42.714;23.732;2022-10-16T05:37:51;16.52;;;9.68;;
11328;SDS011;5719;42.714;23.732;2022-10-16T05:40:20;21.08;;;11.10;;
11328;SDS011;5719;42.714;23.732;2022-10-16T05:42:48;22.77;;;13.50;;
11328;SDS011;5719;42.714;23.732;2022-10-16T05:45:15;21.92;;;11.88;;
11328;SDS011;5719;42.714;23.732;2022-10-16T05:47:42;17.75;;;9.70;;
11328;SDS011;5719;42.714;23.732;2022-10-16T05:50:09;10.05;;;6.70;;
11328;SDS011;5719;42.714;23.732;2022-10-16T05:52:36;9.35;;;5.93;;
11328;SDS011;5719;42.714;23.732;2022-10-16T05:55:03;8.25;;;6.18;;
11328;SDS011;5719;42.714;23.732;2022-10-16T05:57:32;16.60;;;5.53;;
11328;SDS011;5719;42.714;23.732;2022-10-16T05:59:59;7.93;;;5.63;;
11328;SDS011;5719;42.714;23.732;2022-10-16T06:02:26;9.00;;;5.80;;
11328;SDS011;5719;42.714;23.732;2022-10-16T06:04:53;7.28;;;5.38;;
11328;SDS011;5719;42.714;23.732;2022-10-16T06:07:20;6.45;;;5.05;;
11328;SDS011;5719;42.714;23.732;2022-10-16T06:09:48;6.45;;;5.28;;
11328;SDS011;5719;42.714;23.732;2022-10-16T06:12:15;9.70;;;5.30;;
11328;SDS011;5719;42.714;23.732;2022-10-16T06:14:44;6.47;;;5.28;;
11328;SDS011;5719;42.714;23.732;2022-10-16T06:17:12;9.30;;;5.28;;
11328;SDS011;5719;42.714;23.732;2022-10-16T06:19:39;15.63;;;5.50;;
11328;SDS011;5719;42.714;23.732;2022-10-16T06:22:06;12.25;;;5.60;;
11328;SDS011;5719;42.714;23.732;2022-10-16T06:24:33;6.28;;;5.35;;
11328;SDS011;5719;42.714;23.732;2022-10-16T06:27:00;8.57;;;4.88;;
11328;SDS011;5719;42.714;23.732;2022-10-16T06:29:27;8.63;;;4.65;;
11328;SDS011;5719;42.714;23.732;2022-10-16T06:31:55;8.20;;;5.22;;
11328;SDS011;5719;42.714;23.732;2022-10-16T06:34:22;7.35;;;4.88;;
11328;SDS011;5719;42.714;23.732;2022-10-16T06:36:49;7.72;;;4.50;;
11328;SDS011;5719;42.714;23.732;2022-10-16T06:39:16;8.57;;;4.40;;
11328;SDS011;5719;42.714;23.732;2022-10-16T06:41:43;7.20;;;4.72;;
11328;SDS011;5719;42.714;23.732;2022-10-16T06:44:10;8.13;;;4.90;;
11328;SDS011;5719;42.714;23.732;2022-10-16T06:46:37;6.40;;;4.53;;
11328;SDS011;5719;42.714;23.732;2022-10-16T06:49:05;8.00;;;4.88;;
11328;SDS011;5719;42.714;23.732;2022-10-16T06:51:32;8.88;;;5.00;;
11328;SDS011;5719;42.714;23.732;2022-10-16T06:54:01;6.35;;;4.55;;
11328;SDS011;5719;42.714;23.732;2022-10-16T06:56:29;7.88;;;5.32;;
11328;SDS011;5719;42.714;23.732;2022-10-16T06:58:56;8.90;;;5.10;;
11328;SDS011;5719;42.714;23.732;2022-10-16T07:01:23;8.43;;;5.40;;
11328;SDS011;5719;42.714;23.732;2022-10-16T07:03:51;9.15;;;5.25;;
11328;SDS011;5719;42.714;23.732;2022-10-16T07:06:21;10.25;;;5.60;;
11328;SDS011;5719;42.714;23.732;2022-10-16T07:08:50;7.72;;;4.88;;
11328;SDS011;5719;42.714;23.732;2022-10-16T07:11:17;8.32;;;4.50;;
11328;SDS011;5719;42.714;23.732;2022-10-16T07:13:46;10.07;;;5.07;;
11328;SDS011;5719;42.714;23.732;2022-10-16T07:16:14;7.15;;;4.57;;
11328;SDS011;5719;42.714;23.732;2022-10-16T07:18:43;8.50;;;4.80;;
11328;SDS011;5719;42.714;23.732;2022-10-16T07:21:14;7.93;;;4.50;;
11328;SDS011;5719;42.714;23.732;2022-10-16T07:23:43;6.20;;;4.60;;
11328;SDS011;5719;42.714;23.732;2022-10-16T07:26:11;6.22;;;4.43;;
11328;SDS011;5719;42.714;23.732;2022-10-16T07:28:38;8.20;;;4.07;;
11328;SDS011;5719;42.714;23.732;2022-10-16T07:31:06;5.18;;;4.22;;
11328;SDS011;5719;42.714;23.732;2022-10-16T07:33:36;13.10;;;4.07;;
11328;SDS011;5719;42.714;23.732;2022-10-16T07:36:04;5.97;;;4.15;;
11328;SDS011;5719;42.714;23.732;2022-10-16T07:38:31;6.88;;;4.30;;
11328;SDS011;5719;42.714;23.732;2022-10-16T07:41:01;11.20;;;4.22;;
11328;SDS011;5719;42.714;23.732;2022-10-16T07:43:30;7.57;;;4.25;;
11328;SDS011;5719;42.714;23.732;2022-10-16T07:45:59;5.57;;;3.95;;
11328;SDS011;5719;42.714;23.732;2022-10-16T07:48:27;6.45;;;3.50;;
11328;SDS011;5719;42.714;23.732;2022-10-16T07:50:56;5.95;;;3.60;;
11328;SDS011;5719;42.714;23.732;2022-10-16T07:53:24;8.38;;;4.05;;
11328;SDS011;5719;42.714;23.732;2022-10-16T07:55:52;5.68;;;3.88;;
11328;SDS011;5719;42.714;23.732;2022-10-16T07:58:20;5.57;;;3.60;;
11328;SDS011;5719;42.714;23.732;2022-10-16T08:00:47;3.88;;;3.45;;
11328;SDS011;5719;42.714;23.732;2022-10-16T08:03:14;7.97;;;3.30;;
11328;SDS011;5719;42.714;23.732;2022-10-16T08:05:41;9.15;;;3.63;;
11328;SDS011;5719;42.714;23.732;2022-10-16T08:08:11;6.53;;;3.33;;
11328;SDS011;5719;42.714;23.732;2022-10-16T08:10:39;4.93;;;3.55;;
11328;SDS011;5719;42.714;23.732;2022-10-16T08:13:06;3.45;;;3.15;;
11328;SDS011;5719;42.714;23.732;2022-10-16T08:15:37;10.23;;;3.40;;
11328;SDS011;5719;42.714;23.732;2022-10-16T08:18:04;4.72;;;3.15;;
11328;SDS011;5719;42.714;23.732;2022-10-16T08:20:33;4.47;;;3.25;;
11328;SDS011;5719;42.714;23.732;2022-10-16T08:23:00;23.38;;;4.13;;
11328;SDS011;5719;42.714;23.732;2022-10-16T08:25:28;5.28;;;3.30;;
11328;SDS011;5719;42.714;23.732;2022-10-16T08:27:55;4.93;;;3.55;;
11328;SDS011;5719;42.714;23.732;2022-10-16T08:30:22;3.70;;;3.40;;
11328;SDS011;5719;42.714;23.732;2022-10-16T08:32:51;4.90;;;3.28;;
11328;SDS011;5719;42.714;23.732;2022-10-16T08:35:18;8.00;;;3.83;;
11328;SDS011;5719;42.714;23.732;2022-10-16T08:37:45;4.60;;;3.22;;
11328;SDS011;5719;42.714;23.732;2022-10-16T08:40:16;4.90;;;3.20;;
11328;SDS011;5719;42.714;23.732;2022-10-16T08:42:53;5.20;;;3.00;;
11328;SDS011;5719;42.714;23.732;2022-10-16T08:45:34;6.45;;;2.80;;
11328;SDS011;5719;42.714;23.732;2022-10-16T08:48:13;5.03;;;3.08;;
11328;SDS011;5719;42.714;23.732;2022-10-16T08:50:44;5.95;;;2.75;;
11328;SDS011;5719;42.714;23.732;2022-10-16T08:53:15;8.95;;;3.45;;
11328;SDS011;5719;42.714;23.732;2022-10-16T08:55:46;4.15;;;2.53;;
11328;SDS011;5719;42.714;23.732;2022-10-16T08:58:17;3.05;;;2.72;;
11328;SDS011;5719;42.714;23.732;2022-10-16T09:00:46;3.55;;;3.25;;
11328;SDS011;5719;42.714;23.732;2022-10-16T09:03:23;5.60;;;2.90;;
11328;SDS011;5719;42.714;23.732;2022-10-16T09:08:56;5.03;;;2.83;;
11328;SDS011;5719;42.714;23.732;2022-10-16T09:11:36;4.63;;;2.85;;
11328;SDS011;5719;42.714;23.732;2022-10-16T09:14:15;4.50;;;3.13;;
11328;SDS011;5719;42.714;23.732;2022-10-16T09:17:03;4.95;;;3.47;;
11328;SDS011;5719;42.714;23.732;2022-10-16T09:19:44;5.53;;;3.17;;
11328;SDS011;5719;42.714;23.732;2022-10-16T09:22:17;4.93;;;2.70;;
11328;SDS011;5719;42.714;23.732;2022-10-16T09:24:48;2.65;;;2.40;;
11328;SDS011;5719;42.714;23.732;2022-10-16T09:27:15;5.95;;;2.40;;
11328;SDS011;5719;42.714;23.732;2022-10-16T09:29:42;5.22;;;3.38;;
11328;SDS011;5719;42.714;23.732;2022-10-16T09:32:10;4.43;;;2.78;;
11328;SDS011;5719;42.714;23.732;2022-10-16T09:34:42;4.38;;;2.95;;
11328;SDS011;5719;42.714;23.732;2022-10-16T09:37:14;4.18;;;2.60;;
11328;SDS011;5719;42.714;23.732;2022-10-16T09:39:45;3.03;;;2.17;;
11328;SDS011;5719;42.714;23.732;2022-10-16T09:42:14;3.42;;;2.28;;
11328;SDS011;5719;42.714;23.732;2022-10-16T09:44:42;3.05;;;2.30;;
11328;SDS011;5719;42.714;23.732;2022-10-16T09:47:16;2.58;;;2.38;;
11328;SDS011;5719;42.714;23.732;2022-10-16T09:49:54;2.42;;;2.22;;
11328;SDS011;5719;42.714;23.732;2022-10-16T09:52:23;4.60;;;2.30;;
11328;SDS011;5719;42.714;23.732;2022-10-16T09:54:51;2.30;;;2.10;;
11328;SDS011;5719;42.714;23.732;2022-10-16T09:57:19;2.40;;;2.20;;
11328;SDS011;5719;42.714;23.732;2022-10-16T09:59:47;6.25;;;2.22;;
11328;SDS011;5719;42.714;23.732;2022-10-16T10:02:15;2.33;;;1.90;;
11328;SDS011;5719;42.714;23.732;2022-10-16T10:04:47;2.53;;;2.05;;
11328;SDS011;5719;42.714;23.732;2022-10-16T10:07:18;2.20;;;1.90;;
11328;SDS011;5719;42.714;23.732;2022-10-16T10:09:50;3.63;;;2.58;;
11328;SDS011;5719;42.714;23.732;2022-10-16T10:12:17;4.47;;;2.10;;
11328;SDS011;5719;42.714;23.732;2022-10-16T10:14:47;3.13;;;2.15;;
11328;SDS011;5719;42.714;23.732;2022-10-16T10:17:16;2.10;;;1.90;;
11328;SDS011;5719;42.714;23.732;2022-10-16T10:19:49;4.05;;;2.28;;
11328;SDS011;5719;42.714;23.732;2022-10-16T10:25:19;2.40;;;1.85;;
11328;SDS011;5719;42.714;23.732;2022-10-16T10:27:58;2.70;;;1.90;;
11328;SDS011;5719;42.714;23.732;2022-10-16T10:30:35;3.10;;;2.20;;
11328;SDS011;5719;42.714;23.732;2022-10-16T10:33:12;1.67;;;1.58;;
11328;SDS011;5719;42.714;23.732;2022-10-16T10:35:47;2.63;;;1.90;;
11328;SDS011;5719;42.714;23.732;2022-10-16T10:38:24;1.90;;;1.80;;
11328;SDS011;5719;42.714;23.732;2022-10-16T10:41:00;4.90;;;1.67;;
11328;SDS011;5719;42.714;23.732;2022-10-16T10:43:41;3.20;;;1.83;;
11328;SDS011;5719;42.714;23.732;2022-10-16T10:46:20;2.70;;;1.83;;
11328;SDS011;5719;42.714;23.732;2022-10-16T10:49:00;1.77;;;1.67;;
11328;SDS011;5719;42.714;23.732;2022-10-16T10:51:49;3.47;;;1.88;;
11328;SDS011;5719;42.714;23.732;2022-10-16T10:54:24;17.15;;;2.67;;
11328;SDS011;5719;42.714;23.732;2022-10-16T10:57:00;4.78;;;1.85;;
11328;SDS011;5719;42.714;23.732;2022-10-16T10:59:32;2.70;;;1.80;;
11328;SDS011;5719;42.714;23.732;2022-10-16T11:02:18;2.08;;;1.88;;
11328;SDS011;5719;42.714;23.732;2022-10-16T11:04:55;1.90;;;1.80;;
11328;SDS011;5719;42.714;23.732;2022-10-16T11:07:43;5.57;;;2.15;;
11328;SDS011;5719;42.714;23.732;2022-10-16T11:10:16;2.17;;;1.98;;
11328;SDS011;5719;42.714;23.732;2022-10-16T11:12:47;3.72;;;2.10;;
11328;SDS011;5719;42.714;23.732;2022-10-16T11:15:18;6.15;;;2.35;;
11328;SDS011;5719;42.714;23.732;2022-10-16T11:17:48;2.35;;;1.90;;
11328;SDS011;5719;42.714;23.732;2022-10-16T11:20:18;2.40;;;2.00;;
11328;SDS011;5719;42.714;23.732;2022-10-16T11:22:50;3.30;;;1.88;;
11328;SDS011;5719;42.714;23.732;2022-10-16T11:25:23;3.45;;;2.10;;
11328;SDS011;5719;42.714;23.732;2022-10-16T11:27:54;7.10;;;2.60;;
11328;SDS011;5719;42.714;23.732;2022-10-16T11:30:28;4.28;;;1.80;;
11328;SDS011;5719;42.714;23.732;2022-10-16T11:33:00;3.13;;;1.80;;
11328;SDS011;5719;42.714;23.732;2022-10-16T11:35:38;1.90;;;1.80;;
11328;SDS011;5719;42.714;23.732;2022-10-16T11:38:10;2.13;;;1.88;;
11328;SDS011;5719;42.714;23.732;2022-10-16T11:40:43;2.70;;;1.90;;
11328;SDS011;5719;42.714;23.732;2022-10-16T11:43:19;4.88;;;2.22;;
11328;SDS011;5719;42.714;23.732;2022-10-16T11:45:51;3.03;;;2.08;;
11328;SDS011;5719;42.714;23.732;2022-10-16T11:48:23;2.58;;;2.00;;
11328;SDS011;5719;42.714;23.732;2022-10-16T11:50:57;2.55;;;1.92;;
11328;SDS011;5719;42.714;23.732;2022-10-16T11:53:34;2.75;;;1.85;;
11328;SDS011;5719;42.714;23.732;2022-10-16T11:56:13;2.38;;;1.80;;
11328;SDS011;5719;42.714;23.732;2022-10-16T11:58:44;6.13;;;2.20;;
11328;SDS011;5719;42.714;23.732;2022-10-16T12:01:19;2.75;;;1.98;;
11328;SDS011;5719;42.714;23.732;2022-10-16T12:03:56;2.25;;;1.83;;
11328;SDS011;5719;42.714;23.732;2022-10-16T12:06:40;2.00;;;1.90;;
11328;SDS011;5719;42.714;23.732;2022-10-16T12:09:13;3.97;;;1.90;;
11328;SDS011;5719;42.714;23.732;2022-10-16T12:11:47;3.28;;;2.03;;
11328;SDS011;5719;42.714;23.732;2022-10-16T12:14:19;4.78;;;2.10;;
11328;SDS011;5719;42.714;23.732;2022-10-16T12:17:02;4.40;;;1.90;;
11328;SDS011;5719;42.714;23.732;2022-10-16T12:19:31;4.63;;;2.13;;
11328;SDS011;5719;42.714;23.732;2022-10-16T12:21:59;2.60;;;2.05;;
11328;SDS011;5719;42.714;23.732;2022-10-16T12:24:32;5.43;;;2.08;;
11328;SDS011;5719;42.714;23.732;2022-10-16T12:27:04;3.25;;;2.05;;
11328;SDS011;5719;42.714;23.732;2022-10-16T12:29:43;3.40;;;2.10;;
11328;SDS011;5719;42.714;23.732;2022-10-16T12:32:22;6.35;;;2.20;;
11328;SDS011;5719;42.714;23.732;2022-10-16T12:34:53;2.63;;;2.05;;
11328;SDS011;5719;42.714;23.732;2022-10-16T12:37:21;4.38;;;2.42;;
11328;SDS011;5719;42.714;23.732;2022-10-16T12:39:52;2.33;;;2.10;;
11328;SDS011;5719;42.714;23.732;2022-10-16T12:42:38;2.70;;;1.83;;
11328;SDS011;5719;42.714;23.732;2022-10-16T12:45:21;5.45;;;2.10;;
11328;SDS011;5719;42.714;23.732;2022-10-16T12:47:52;2.45;;;1.92;;
11328;SDS011;5719;42.714;23.732;2022-10-16T12:50:23;6.05;;;2.30;;
11328;SDS011;5719;42.714;23.732;2022-10-16T12:52:53;4.72;;;2.00;;
11328;SDS011;5719;42.714;23.732;2022-10-16T12:55:20;2.58;;;1.95;;
11328;SDS011;5719;42.714;23.732;2022-10-16T12:58:03;3.85;;;2.03;;
11328;SDS011;5719;42.714;23.732;2022-10-16T13:00:42;3.35;;;2.17;;
11328;SDS011;5719;42.714;23.732;2022-10-16T13:03:20;1.98;;;1.83;;
11328;SDS011;5719;42.714;23.732;2022-10-16T13:06:00;5.00;;;2.00;;
11328;SDS011;5719;42.714;23.732;2022-10-16T13:08:46;4.82;;;2.22;;
11328;SDS011;5719;42.714;23.732;2022-10-16T13:11:27;3.60;;;1.90;;
11328;SDS011;5719;42.714;23.732;2022-10-16T13:14:09;6.80;;;2.05;;
11328;SDS011;5719;42.714;23.732;2022-10-16T13:16:55;6.63;;;2.50;;
11328;SDS011;5719;42.714;23.732;2022-10-16T13:19:32;7.55;;;2.38;;
11328;SDS011;5719;42.714;23.732;2022-10-16T13:22:06;6.10;;;2.20;;
11328;SDS011;5719;42.714;23.732;2022-10-16T13:24:52;3.47;;;2.15;;
11328;SDS011;5719;42.714;23.732;2022-10-16T13:27:31;2.72;;;2.30;;
11328;SDS011;5719;42.714;23.732;2022-10-16T13:30:11;1.90;;;1.77;;
11328;SDS011;5719;42.714;23.732;2022-10-16T13:32:44;2.38;;;2.03;;
11328;SDS011;5719;42.714;23.732;2022-10-16T13:35:21;2.58;;;2.25;;
11328;SDS011;5719;42.714;23.732;2022-10-16T13:37:49;2.00;;;1.90;;
11328;SDS011;5719;42.714;23.732;2022-10-16T13:40:20;2.28;;;2.00;;
11328;SDS011;5719;42.714;23.732;2022-10-16T13:42:49;2.60;;;2.07;;
11328;SDS011;5719;42.714;23.732;2022-10-16T13:45:19;2.28;;;2.08;;
11328;SDS011;5719;42.714;23.732;2022-10-16T13:47:47;2.58;;;2.00;;
11328;SDS011;5719;42.714;23.732;2022-10-16T13:50:15;3.53;;;1.98;;
11328;SDS011;5719;42.714;23.732;2022-10-16T13:52:43;3.63;;;1.88;;
11328;SDS011;5719;42.714;23.732;2022-10-16T13:55:11;3.92;;;1.98;;
11328;SDS011;5719;42.714;23.732;2022-10-16T13:57:38;4.00;;;2.13;;
11328;SDS011;5719;42.714;23.732;2022-10-16T14:00:18;3.47;;;2.22;;
11328;SDS011;5719;42.714;23.732;2022-10-16T14:02:50;4.57;;;2.25;;
11328;SDS011;5719;42.714;23.732;2022-10-16T14:05:21;3.72;;;1.77;;
11328;SDS011;5719;42.714;23.732;2022-10-16T14:07:49;5.30;;;2.10;;
11328;SDS011;5719;42.714;23.732;2022-10-16T14:10:22;2.28;;;1.70;;
11328;SDS011;5719;42.714;23.732;2022-10-16T14:12:55;2.10;;;1.90;;
11328;SDS011;5719;42.714;23.732;2022-10-16T14:15:25;6.10;;;1.90;;
11328;SDS011;5719;42.714;23.732;2022-10-16T14:17:52;2.67;;;2.00;;
11328;SDS011;5719;42.714;23.732;2022-10-16T14:20:20;3.15;;;2.08;;
11328;SDS011;5719;42.714;23.732;2022-10-16T14:23:02;2.72;;;2.13;;
11328;SDS011;5719;42.714;23.732;2022-10-16T14:25:30;4.78;;;2.40;;
11328;SDS011;5719;42.714;23.732;2022-10-16T14:28:00;3.80;;;2.20;;
11328;SDS011;5719;42.714;23.732;2022-10-16T14:30:30;2.92;;;1.95;;
11328;SDS011;5719;42.714;23.732;2022-10-16T14:32:59;2.13;;;1.92;;
11328;SDS011;5719;42.714;23.732;2022-10-16T14:35:29;2.38;;;2.05;;
11328;SDS011;5719;42.714;23.732;2022-10-16T14:37:58;2.97;;;1.73;;
11328;SDS011;5719;42.714;23.732;2022-10-16T14:40:27;2.38;;;2.17;;
11328;SDS011;5719;42.714;23.732;2022-10-16T14:42:56;1.98;;;1.88;;
11328;SDS011;5719;42.714;23.732;2022-10-16T14:45:24;2.17;;;1.88;;
11328;SDS011;5719;42.714;23.732;2022-10-16T14:47:56;3.42;;;1.60;;
11328;SDS011;5719;42.714;23.732;2022-10-16T14:50:24;2.67;;;1.73;;
11328;SDS011;5719;42.714;23.732;2022-10-16T14:52:51;2.45;;;1.90;;
11328;SDS011;5719;42.714;23.732;2022-10-16T14:55:18;4.53;;;2.10;;
11328;SDS011;5719;42.714;23.732;2022-10-16T14:57:46;4.10;;;1.90;;
11328;SDS011;5719;42.714;23.732;2022-10-16T15:00:15;6.20;;;2.30;;
11328;SDS011;5719;42.714;23.732;2022-10-16T15:02:45;5.35;;;1.83;;
11328;SDS011;5719;42.714;23.732;2022-10-16T15:05:15;2.10;;;1.90;;
11328;SDS011;5719;42.714;23.732;2022-10-16T15:07:44;3.20;;;1.90;;
11328;SDS011;5719;42.714;23.732;2022-10-16T15:10:11;3.38;;;1.98;;